sensor_id;sensor_type;location;lat;lon;timestamp;pressure;altitude;pressure_sealevel;temperature;humidity
18137;BME280;9194;42.632;23.298;2024-03-08T00:03:46;92579.00;;;4.78;100.00
18137;BME280;9194;42.632;23.298;2024-03-08T00:08:47;92589.63;;;4.69;100.00
18137;BME280;9194;42.632;23.298;2024-03-08T00:13:48;92584.91;;;4.72;100.00
18137;BME280;9194;42.632;23.298;2024-03-08T00:18:50;92586.44;;;4.67;100.00
18137;BME280;9194;42.632;23.298;2024-03-08T00:23:51;92579.50;;;4.67;100.00
18137;BME280;9194;42.632;23.298;2024-03-08T00:28:55;92577.66;;;4.61;100.00
18137;BME280;9194;42.632;23.298;2024-03-08T00:33:57;92581.72;;;4.70;100.00
18137;BME280;9194;42.632;23.298;2024-03-08T00:38:58;92567.06;;;4.71;100.00
18137;BME280;9194;42.632;23.298;2024-03-08T00:44:04;92572.22;;;4.71;100.00
18137;BME280;9194;42.632;23.298;2024-03-08T00:49:06;92561.41;;;4.61;100.00
18137;BME280;9194;42.632;23.298;2024-03-08T00:54:07;92557.09;;;4.68;100.00
18137;BME280;9194;42.632;23.298;2024-03-08T00:59:09;92554.84;;;4.58;100.00
18137;BME280;9194;42.632;23.298;2024-03-08T01:04:10;92546.16;;;4.38;100.00
18137;BME280;9194;42.632;23.298;2024-03-08T01:09:11;92546.59;;;4.41;100.00
18137;BME280;9194;42.632;23.298;2024-03-08T01:14:12;92547.13;;;4.37;100.00
18137;BME280;9194;42.632;23.298;2024-03-08T01:19:14;92548.50;;;4.33;100.00
18137;BME280;9194;42.632;23.298;2024-03-08T01:24:16;92544.03;;;4.20;100.00
18137;BME280;9194;42.632;23.298;2024-03-08T01:29:17;92537.78;;;4.29;100.00
18137;BME280;9194;42.632;23.298;2024-03-08T01:34:19;92533.19;;;4.25;100.00
18137;BME280;9194;42.632;23.298;2024-03-08T01:39:20;92535.94;;;4.23;100.00
18137;BME280;9194;42.632;23.298;2024-03-08T01:44:22;92534.44;;;4.14;100.00
18137;BME280;9194;42.632;23.298;2024-03-08T01:49:24;92536.50;;;4.19;100.00
18137;BME280;9194;42.632;23.298;2024-03-08T01:54:27;92535.31;;;4.21;100.00
18137;BME280;9194;42.632;23.298;2024-03-08T01:59:29;92532.88;;;4.13;100.00
18137;BME280;9194;42.632;23.298;2024-03-08T02:04:30;92521.34;;;4.09;100.00
18137;BME280;9194;42.632;23.298;2024-03-08T02:09:31;92529.63;;;4.04;100.00
18137;BME280;9194;42.632;23.298;2024-03-08T02:14:33;92524.06;;;4.01;100.00
18137;BME280;9194;42.632;23.298;2024-03-08T02:19:34;92525.13;;;3.92;100.00
18137;BME280;9194;42.632;23.298;2024-03-08T02:24:37;92530.97;;;4.00;100.00
18137;BME280;9194;42.632;23.298;2024-03-08T02:29:39;92534.03;;;4.10;100.00
18137;BME280;9194;42.632;23.298;2024-03-08T02:34:41;92531.03;;;4.07;100.00
18137;BME280;9194;42.632;23.298;2024-03-08T02:39:43;92539.50;;;4.01;100.00
18137;BME280;9194;42.632;23.298;2024-03-08T02:44:47;92536.22;;;4.13;100.00
18137;BME280;9194;42.632;23.298;2024-03-08T02:49:51;92536.78;;;4.09;100.00
18137;BME280;9194;42.632;23.298;2024-03-08T02:54:52;92546.34;;;4.15;100.00
18137;BME280;9194;42.632;23.298;2024-03-08T02:59:54;92543.91;;;4.07;100.00
18137;BME280;9194;42.632;23.298;2024-03-08T03:04:55;92551.25;;;3.89;100.00
18137;BME280;9194;42.632;23.298;2024-03-08T03:10:00;92548.63;;;4.03;100.00
18137;BME280;9194;42.632;23.298;2024-03-08T03:15:04;92557.53;;;4.01;100.00
18137;BME280;9194;42.632;23.298;2024-03-08T03:20:08;92559.22;;;3.94;100.00
18137;BME280;9194;42.632;23.298;2024-03-08T03:25:15;92559.09;;;3.81;100.00
18137;BME280;9194;42.632;23.298;2024-03-08T03:30:16;92564.38;;;3.72;100.00
18137;BME280;9194;42.632;23.298;2024-03-08T03:35:22;92572.00;;;3.66;100.00
18137;BME280;9194;42.632;23.298;2024-03-08T03:40:23;92572.09;;;3.72;100.00
18137;BME280;9194;42.632;23.298;2024-03-08T03:45:26;92573.06;;;3.71;100.00
18137;BME280;9194;42.632;23.298;2024-03-08T03:50:28;92577.97;;;3.52;100.00
18137;BME280;9194;42.632;23.298;2024-03-08T03:55:29;92577.41;;;3.56;100.00
18137;BME280;9194;42.632;23.298;2024-03-08T04:00:30;92573.00;;;3.50;100.00
18137;BME280;9194;42.632;23.298;2024-03-08T04:05:31;92585.44;;;3.47;100.00
18137;BME280;9194;42.632;23.298;2024-03-08T04:10:32;92587.00;;;3.62;100.00
18137;BME280;9194;42.632;23.298;2024-03-08T04:15:34;92589.06;;;3.52;100.00
18137;BME280;9194;42.632;23.298;2024-03-08T04:20:35;92593.94;;;3.47;100.00
18137;BME280;9194;42.632;23.298;2024-03-08T04:25:36;92599.28;;;3.46;100.00
18137;BME280;9194;42.632;23.298;2024-03-08T04:30:39;92602.81;;;3.45;100.00
18137;BME280;9194;42.632;23.298;2024-03-08T04:35:43;92610.97;;;3.34;100.00
18137;BME280;9194;42.632;23.298;2024-03-08T04:40:46;92621.44;;;3.47;100.00
18137;BME280;9194;42.632;23.298;2024-03-08T04:45:48;92614.97;;;3.51;100.00
18137;BME280;9194;42.632;23.298;2024-03-08T04:50:49;92616.47;;;3.45;100.00
18137;BME280;9194;42.632;23.298;2024-03-08T04:55:50;92611.63;;;3.36;100.00
18137;BME280;9194;42.632;23.298;2024-03-08T05:00:51;92625.88;;;3.53;100.00
18137;BME280;9194;42.632;23.298;2024-03-08T05:05:53;92623.66;;;3.50;100.00
18137;BME280;9194;42.632;23.298;2024-03-08T05:10:54;92626.22;;;3.64;100.00
18137;BME280;9194;42.632;23.298;2024-03-08T05:15:55;92636.88;;;3.61;100.00
18137;BME280;9194;42.632;23.298;2024-03-08T05:20:59;92636.97;;;3.68;100.00
18137;BME280;9194;42.632;23.298;2024-03-08T05:26:00;92638.94;;;3.66;100.00
18137;BME280;9194;42.632;23.298;2024-03-08T05:31:02;92647.34;;;3.75;100.00
18137;BME280;9194;42.632;23.298;2024-03-08T05:36:03;92659.06;;;3.77;100.00
18137;BME280;9194;42.632;23.298;2024-03-08T05:41:04;92665.28;;;3.83;100.00
18137;BME280;9194;42.632;23.298;2024-03-08T05:46:06;92671.03;;;3.85;100.00
18137;BME280;9194;42.632;23.298;2024-03-08T05:51:07;92673.75;;;3.98;100.00
18137;BME280;9194;42.632;23.298;2024-03-08T05:56:08;92671.97;;;4.13;100.00
18137;BME280;9194;42.632;23.298;2024-03-08T06:01:10;92679.09;;;3.96;100.00
18137;BME280;9194;42.632;23.298;2024-03-08T06:06:14;92693.75;;;3.96;100.00
18137;BME280;9194;42.632;23.298;2024-03-08T06:11:16;92698.13;;;3.95;100.00
18137;BME280;9194;42.632;23.298;2024-03-08T06:16:18;92703.78;;;4.05;100.00
18137;BME280;9194;42.632;23.298;2024-03-08T06:21:20;92705.56;;;4.05;100.00
18137;BME280;9194;42.632;23.298;2024-03-08T06:26:22;92704.03;;;4.10;100.00
18137;BME280;9194;42.632;23.298;2024-03-08T06:31:23;92701.56;;;4.38;100.00
18137;BME280;9194;42.632;23.298;2024-03-08T06:36:25;92707.69;;;4.37;100.00
18137;BME280;9194;42.632;23.298;2024-03-08T06:41:26;92714.28;;;4.40;100.00
18137;BME280;9194;42.632;23.298;2024-03-08T06:46:28;92725.06;;;4.14;100.00
18137;BME280;9194;42.632;23.298;2024-03-08T06:51:29;92719.69;;;3.94;100.00
18137;BME280;9194;42.632;23.298;2024-03-08T06:56:33;92721.53;;;3.86;100.00
18137;BME280;9194;42.632;23.298;2024-03-08T07:01:37;92725.00;;;3.93;100.00
18137;BME280;9194;42.632;23.298;2024-03-08T07:06:39;92730.97;;;3.93;100.00
18137;BME280;9194;42.632;23.298;2024-03-08T07:11:42;92734.13;;;4.10;100.00
18137;BME280;9194;42.632;23.298;2024-03-08T07:16:43;92733.44;;;4.16;100.00
18137;BME280;9194;42.632;23.298;2024-03-08T07:21:45;92728.25;;;4.31;100.00
18137;BME280;9194;42.632;23.298;2024-03-08T07:26:48;92732.28;;;4.19;100.00
18137;BME280;9194;42.632;23.298;2024-03-08T07:31:51;92726.00;;;4.42;100.00
18137;BME280;9194;42.632;23.298;2024-03-08T07:36:57;92735.97;;;4.67;100.00
18137;BME280;9194;42.632;23.298;2024-03-08T07:41:59;92743.94;;;4.72;100.00
18137;BME280;9194;42.632;23.298;2024-03-08T07:47:00;92745.94;;;4.70;100.00
18137;BME280;9194;42.632;23.298;2024-03-08T07:52:01;92748.25;;;4.65;100.00
18137;BME280;9194;42.632;23.298;2024-03-08T07:57:05;92751.34;;;4.75;100.00
18137;BME280;9194;42.632;23.298;2024-03-08T08:02:07;92747.13;;;4.88;100.00
18137;BME280;9194;42.632;23.298;2024-03-08T08:07:09;92749.75;;;4.95;100.00
18137;BME280;9194;42.632;23.298;2024-03-08T08:12:10;92754.22;;;5.08;100.00
18137;BME280;9194;42.632;23.298;2024-03-08T08:17:13;92745.34;;;5.38;100.00
18137;BME280;9194;42.632;23.298;2024-03-08T08:22:14;92740.09;;;5.25;100.00
18137;BME280;9194;42.632;23.298;2024-03-08T08:27:15;92743.13;;;5.56;100.00
18137;BME280;9194;42.632;23.298;2024-03-08T08:32:16;92750.81;;;5.77;100.00
18137;BME280;9194;42.632;23.298;2024-03-08T08:37:18;92739.88;;;6.03;100.00
18137;BME280;9194;42.632;23.298;2024-03-08T08:42:19;92731.56;;;6.14;100.00
18137;BME280;9194;42.632;23.298;2024-03-08T08:47:20;92727.41;;;6.13;100.00
18137;BME280;9194;42.632;23.298;2024-03-08T08:52:21;92730.97;;;6.60;100.00
18137;BME280;9194;42.632;23.298;2024-03-08T08:57:24;92725.13;;;7.25;100.00
18137;BME280;9194;42.632;23.298;2024-03-08T09:02:25;92713.94;;;7.77;100.00
18137;BME280;9194;42.632;23.298;2024-03-08T09:07:27;92715.72;;;7.97;100.00
18137;BME280;9194;42.632;23.298;2024-03-08T09:12:28;92719.53;;;7.28;100.00
18137;BME280;9194;42.632;23.298;2024-03-08T09:17:30;92719.94;;;7.58;100.00
18137;BME280;9194;42.632;23.298;2024-03-08T09:22:31;92726.72;;;7.33;100.00
18137;BME280;9194;42.632;23.298;2024-03-08T09:27:33;92722.75;;;7.43;100.00
18137;BME280;9194;42.632;23.298;2024-03-08T09:32:35;92719.13;;;7.18;100.00
18137;BME280;9194;42.632;23.298;2024-03-08T09:37:37;92719.16;;;7.38;100.00
18137;BME280;9194;42.632;23.298;2024-03-08T09:42:38;92722.72;;;6.97;100.00
18137;BME280;9194;42.632;23.298;2024-03-08T09:47:41;92715.16;;;7.16;100.00
18137;BME280;9194;42.632;23.298;2024-03-08T09:52:46;92720.16;;;7.37;99.22
18137;BME280;9194;42.632;23.298;2024-03-08T09:57:48;92729.69;;;7.30;95.05
18137;BME280;9194;42.632;23.298;2024-03-08T10:03:08;92720.34;;;7.16;100.00
18137;BME280;9194;42.632;23.298;2024-03-08T10:08:10;92731.97;;;6.66;100.00
18137;BME280;9194;42.632;23.298;2024-03-08T10:13:12;92728.63;;;6.78;100.00
18137;BME280;9194;42.632;23.298;2024-03-08T10:18:15;92716.34;;;7.46;100.00
18137;BME280;9194;42.632;23.298;2024-03-08T10:23:16;92725.69;;;7.87;96.76
18137;BME280;9194;42.632;23.298;2024-03-08T10:28:18;92716.78;;;8.40;96.64
18137;BME280;9194;42.632;23.298;2024-03-08T10:33:19;92707.31;;;8.08;95.39
18137;BME280;9194;42.632;23.298;2024-03-08T10:38:22;92703.72;;;8.02;95.49
18137;BME280;9194;42.632;23.298;2024-03-08T10:43:24;92707.66;;;8.18;89.97
18137;BME280;9194;42.632;23.298;2024-03-08T10:48:31;92704.44;;;8.29;86.35
18137;BME280;9194;42.632;23.298;2024-03-08T10:53:33;92696.88;;;8.79;89.42
18137;BME280;9194;42.632;23.298;2024-03-08T10:58:36;92694.69;;;8.38;89.57
18137;BME280;9194;42.632;23.298;2024-03-08T11:08:42;92686.13;;;8.17;97.76
18137;BME280;9194;42.632;23.298;2024-03-08T11:13:43;92681.47;;;8.39;87.87
18137;BME280;9194;42.632;23.298;2024-03-08T11:18:47;92682.59;;;7.99;93.94
18137;BME280;9194;42.632;23.298;2024-03-08T11:24:02;92671.94;;;8.33;85.70
18137;BME280;9194;42.632;23.298;2024-03-08T11:34:32;92665.53;;;8.36;85.58
18137;BME280;9194;42.632;23.298;2024-03-08T11:39:34;92654.53;;;8.85;79.39
18137;BME280;9194;42.632;23.298;2024-03-08T11:44:35;92659.09;;;9.14;81.05
18137;BME280;9194;42.632;23.298;2024-03-08T11:49:40;92663.50;;;8.82;81.75
18137;BME280;9194;42.632;23.298;2024-03-08T11:54:53;92654.91;;;8.82;83.41
18137;BME280;9194;42.632;23.298;2024-03-08T11:59:55;92654.16;;;8.75;81.77
18137;BME280;9194;42.632;23.298;2024-03-08T12:05:09;92651.81;;;8.67;84.15
18137;BME280;9194;42.632;23.298;2024-03-08T12:10:20;92655.81;;;8.62;84.29
18137;BME280;9194;42.632;23.298;2024-03-08T12:15:26;92663.44;;;8.57;88.03
18137;BME280;9194;42.632;23.298;2024-03-08T12:20:29;92654.69;;;8.52;90.23
18137;BME280;9194;42.632;23.298;2024-03-08T12:25:32;92651.66;;;8.10;87.19
18137;BME280;9194;42.632;23.298;2024-03-08T12:30:45;92655.50;;;7.88;90.98
18137;BME280;9194;42.632;23.298;2024-03-08T12:35:55;92642.66;;;7.42;87.65
18137;BME280;9194;42.632;23.298;2024-03-08T12:40:59;92642.56;;;7.88;85.20
18137;BME280;9194;42.632;23.298;2024-03-08T12:46:01;92641.06;;;8.12;86.10
18137;BME280;9194;42.632;23.298;2024-03-08T12:51:03;92639.59;;;8.42;86.15
18137;BME280;9194;42.632;23.298;2024-03-08T12:56:04;92630.47;;;8.64;86.37
18137;BME280;9194;42.632;23.298;2024-03-08T13:01:09;92623.69;;;8.95;82.18
18137;BME280;9194;42.632;23.298;2024-03-08T13:06:10;92625.59;;;9.31;85.06
18137;BME280;9194;42.632;23.298;2024-03-08T13:11:11;92621.28;;;8.93;82.39
18137;BME280;9194;42.632;23.298;2024-03-08T13:16:13;92625.53;;;8.56;87.80
18137;BME280;9194;42.632;23.298;2024-03-08T13:21:18;92630.22;;;8.41;85.04
18137;BME280;9194;42.632;23.298;2024-03-08T13:26:21;92626.13;;;8.58;84.81
18137;BME280;9194;42.632;23.298;2024-03-08T13:31:22;92630.22;;;8.35;84.13
18137;BME280;9194;42.632;23.298;2024-03-08T13:36:24;92624.06;;;8.29;85.87
18137;BME280;9194;42.632;23.298;2024-03-08T13:41:30;92625.59;;;7.92;86.88
18137;BME280;9194;42.632;23.298;2024-03-08T13:46:31;92631.66;;;8.24;90.46
18137;BME280;9194;42.632;23.298;2024-03-08T13:51:32;92635.41;;;8.41;79.85
18137;BME280;9194;42.632;23.298;2024-03-08T13:56:33;92624.41;;;8.77;79.90
18137;BME280;9194;42.632;23.298;2024-03-08T14:01:35;92622.84;;;8.70;78.87
18137;BME280;9194;42.632;23.298;2024-03-08T14:06:36;92618.75;;;8.87;78.96
18137;BME280;9194;42.632;23.298;2024-03-08T14:11:38;92622.06;;;8.69;81.10
18137;BME280;9194;42.632;23.298;2024-03-08T14:16:39;92621.84;;;8.71;77.29
18137;BME280;9194;42.632;23.298;2024-03-08T14:21:40;92623.13;;;8.61;79.55
18137;BME280;9194;42.632;23.298;2024-03-08T14:26:43;92617.13;;;8.61;80.54
18137;BME280;9194;42.632;23.298;2024-03-08T14:31:47;92615.59;;;8.47;81.93
18137;BME280;9194;42.632;23.298;2024-03-08T14:36:51;92613.50;;;8.24;80.10
18137;BME280;9194;42.632;23.298;2024-03-08T14:41:53;92614.31;;;8.24;82.28
18137;BME280;9194;42.632;23.298;2024-03-08T14:46:59;92621.75;;;8.08;81.90
18137;BME280;9194;42.632;23.298;2024-03-08T14:52:01;92625.19;;;7.95;82.33
18137;BME280;9194;42.632;23.298;2024-03-08T14:57:02;92630.22;;;7.83;86.24
18137;BME280;9194;42.632;23.298;2024-03-08T15:02:04;92633.81;;;7.82;87.75
18137;BME280;9194;42.632;23.298;2024-03-08T15:07:07;92629.09;;;7.40;91.23
18137;BME280;9194;42.632;23.298;2024-03-08T15:12:10;92632.72;;;7.19;92.62
18137;BME280;9194;42.632;23.298;2024-03-08T15:17:12;92631.13;;;7.05;92.10
18137;BME280;9194;42.632;23.298;2024-03-08T15:22:21;92651.22;;;6.90;92.71
18137;BME280;9194;42.632;23.298;2024-03-08T15:27:24;92658.56;;;6.67;96.92
18137;BME280;9194;42.632;23.298;2024-03-08T15:32:26;92647.22;;;6.61;96.91
18137;BME280;9194;42.632;23.298;2024-03-08T15:37:28;92640.41;;;6.40;92.85
18137;BME280;9194;42.632;23.298;2024-03-08T15:42:30;92650.53;;;6.35;98.00
18137;BME280;9194;42.632;23.298;2024-03-08T15:47:32;92652.09;;;6.30;100.00
18137;BME280;9194;42.632;23.298;2024-03-08T15:52:34;92656.06;;;6.19;100.00
18137;BME280;9194;42.632;23.298;2024-03-08T15:57:36;92661.81;;;5.80;100.00
18137;BME280;9194;42.632;23.298;2024-03-08T16:02:39;92667.44;;;5.56;100.00
18137;BME280;9194;42.632;23.298;2024-03-08T16:07:40;92671.41;;;5.52;100.00
18137;BME280;9194;42.632;23.298;2024-03-08T16:12:42;92686.16;;;5.30;100.00
18137;BME280;9194;42.632;23.298;2024-03-08T16:17:44;92679.53;;;5.21;100.00
18137;BME280;9194;42.632;23.298;2024-03-08T16:22:45;92675.66;;;5.10;100.00
18137;BME280;9194;42.632;23.298;2024-03-08T16:27:47;92686.25;;;4.94;100.00
18137;BME280;9194;42.632;23.298;2024-03-08T16:32:48;92691.28;;;4.81;100.00
18137;BME280;9194;42.632;23.298;2024-03-08T16:37:52;92701.94;;;4.71;100.00
18137;BME280;9194;42.632;23.298;2024-03-08T16:42:53;92704.97;;;4.60;100.00
18137;BME280;9194;42.632;23.298;2024-03-08T16:47:55;92710.06;;;4.53;100.00
18137;BME280;9194;42.632;23.298;2024-03-08T16:52:56;92714.44;;;4.38;100.00
18137;BME280;9194;42.632;23.298;2024-03-08T16:57:58;92715.72;;;4.42;100.00
18137;BME280;9194;42.632;23.298;2024-03-08T17:03:00;92723.78;;;4.39;100.00
18137;BME280;9194;42.632;23.298;2024-03-08T17:08:03;92728.22;;;4.45;100.00
18137;BME280;9194;42.632;23.298;2024-03-08T17:13:07;92734.47;;;4.36;100.00
18137;BME280;9194;42.632;23.298;2024-03-08T17:18:09;92727.34;;;4.38;100.00
18137;BME280;9194;42.632;23.298;2024-03-08T17:23:10;92729.91;;;4.38;100.00
18137;BME280;9194;42.632;23.298;2024-03-08T17:28:14;92727.00;;;4.41;100.00
18137;BME280;9194;42.632;23.298;2024-03-08T17:33:16;92727.09;;;4.33;100.00
18137;BME280;9194;42.632;23.298;2024-03-08T17:38:22;92732.66;;;4.37;100.00
18137;BME280;9194;42.632;23.298;2024-03-08T17:43:25;92723.19;;;4.23;100.00
18137;BME280;9194;42.632;23.298;2024-03-08T17:48:29;92725.94;;;4.21;100.00
18137;BME280;9194;42.632;23.298;2024-03-08T17:53:30;92726.84;;;4.13;100.00
18137;BME280;9194;42.632;23.298;2024-03-08T17:58:32;92739.28;;;4.10;100.00
18137;BME280;9194;42.632;23.298;2024-03-08T18:03:34;92733.34;;;4.09;100.00
18137;BME280;9194;42.632;23.298;2024-03-08T18:08:37;92742.94;;;4.16;100.00
18137;BME280;9194;42.632;23.298;2024-03-08T18:13:38;92745.50;;;4.16;100.00
18137;BME280;9194;42.632;23.298;2024-03-08T18:18:40;92739.53;;;4.15;100.00
18137;BME280;9194;42.632;23.298;2024-03-08T18:23:41;92729.00;;;4.10;100.00
18137;BME280;9194;42.632;23.298;2024-03-08T18:28:46;92727.50;;;4.01;100.00
18137;BME280;9194;42.632;23.298;2024-03-08T18:33:49;92731.31;;;3.76;100.00
18137;BME280;9194;42.632;23.298;2024-03-08T18:38:50;92747.03;;;3.66;100.00
18137;BME280;9194;42.632;23.298;2024-03-08T18:43:51;92746.09;;;3.44;100.00
18137;BME280;9194;42.632;23.298;2024-03-08T18:48:53;92750.06;;;3.32;100.00
18137;BME280;9194;42.632;23.298;2024-03-08T18:53:54;92739.00;;;3.09;100.00
18137;BME280;9194;42.632;23.298;2024-03-08T18:58:55;92752.91;;;3.00;100.00
18137;BME280;9194;42.632;23.298;2024-03-08T19:03:56;92751.09;;;2.85;100.00
18137;BME280;9194;42.632;23.298;2024-03-08T19:08:59;92744.28;;;2.93;100.00
18137;BME280;9194;42.632;23.298;2024-03-08T19:14:00;92734.59;;;3.03;100.00
18137;BME280;9194;42.632;23.298;2024-03-08T19:19:01;92733.59;;;3.04;100.00
18137;BME280;9194;42.632;23.298;2024-03-08T19:24:02;92745.25;;;3.14;100.00
18137;BME280;9194;42.632;23.298;2024-03-08T19:29:03;92755.25;;;3.09;100.00
18137;BME280;9194;42.632;23.298;2024-03-08T19:34:05;92744.78;;;3.11;100.00
18137;BME280;9194;42.632;23.298;2024-03-08T19:39:10;92743.47;;;3.15;100.00
18137;BME280;9194;42.632;23.298;2024-03-08T19:44:11;92761.06;;;3.03;100.00
18137;BME280;9194;42.632;23.298;2024-03-08T19:49:15;92759.25;;;3.12;100.00
18137;BME280;9194;42.632;23.298;2024-03-08T19:54:17;92763.16;;;3.08;100.00
18137;BME280;9194;42.632;23.298;2024-03-08T19:59:19;92762.47;;;3.14;100.00
18137;BME280;9194;42.632;23.298;2024-03-08T20:04:20;92763.16;;;3.08;100.00
18137;BME280;9194;42.632;23.298;2024-03-08T20:09:21;92768.63;;;3.05;100.00
18137;BME280;9194;42.632;23.298;2024-03-08T20:14:25;92773.44;;;3.08;100.00
18137;BME280;9194;42.632;23.298;2024-03-08T20:19:28;92776.34;;;3.05;100.00
18137;BME280;9194;42.632;23.298;2024-03-08T20:24:30;92777.31;;;3.04;100.00
18137;BME280;9194;42.632;23.298;2024-03-08T20:29:32;92778.31;;;3.03;100.00
18137;BME280;9194;42.632;23.298;2024-03-08T20:34:34;92783.59;;;3.01;100.00
18137;BME280;9194;42.632;23.298;2024-03-08T20:39:35;92785.97;;;2.80;100.00
18137;BME280;9194;42.632;23.298;2024-03-08T20:44:36;92783.22;;;2.59;100.00
18137;BME280;9194;42.632;23.298;2024-03-08T20:49:38;92783.09;;;2.52;100.00
18137;BME280;9194;42.632;23.298;2024-03-08T20:54:39;92793.13;;;2.39;100.00
18137;BME280;9194;42.632;23.298;2024-03-08T20:59:40;92787.38;;;2.29;100.00
18137;BME280;9194;42.632;23.298;2024-03-08T21:04:41;92786.00;;;2.18;100.00
18137;BME280;9194;42.632;23.298;2024-03-08T21:09:43;92786.34;;;2.15;100.00
18137;BME280;9194;42.632;23.298;2024-03-08T21:14:44;92774.19;;;2.01;100.00
18137;BME280;9194;42.632;23.298;2024-03-08T21:19:46;92785.47;;;1.92;100.00
18137;BME280;9194;42.632;23.298;2024-03-08T21:24:48;92798.91;;;1.94;100.00
18137;BME280;9194;42.632;23.298;2024-03-08T21:29:51;92789.94;;;1.90;100.00
18137;BME280;9194;42.632;23.298;2024-03-08T21:34:52;92791.41;;;1.84;100.00
18137;BME280;9194;42.632;23.298;2024-03-08T21:39:55;92780.19;;;1.77;100.00
18137;BME280;9194;42.632;23.298;2024-03-08T21:44:56;92772.34;;;1.71;100.00
18137;BME280;9194;42.632;23.298;2024-03-08T21:49:58;92761.47;;;1.60;100.00
18137;BME280;9194;42.632;23.298;2024-03-08T21:54:59;92768.53;;;1.58;100.00
18137;BME280;9194;42.632;23.298;2024-03-08T22:00:00;92777.38;;;1.56;100.00
18137;BME280;9194;42.632;23.298;2024-03-08T22:05:05;92766.00;;;1.50;100.00
18137;BME280;9194;42.632;23.298;2024-03-08T22:10:08;92760.38;;;1.47;100.00
18137;BME280;9194;42.632;23.298;2024-03-08T22:15:09;92766.81;;;1.43;100.00
18137;BME280;9194;42.632;23.298;2024-03-08T22:20:12;92766.16;;;1.41;100.00
18137;BME280;9194;42.632;23.298;2024-03-08T22:25:21;92770.03;;;1.37;100.00
18137;BME280;9194;42.632;23.298;2024-03-08T22:30:23;92771.94;;;1.43;100.00
18137;BME280;9194;42.632;23.298;2024-03-08T22:35:25;92763.59;;;1.49;100.00
18137;BME280;9194;42.632;23.298;2024-03-08T22:40:26;92763.75;;;1.55;100.00
18137;BME280;9194;42.632;23.298;2024-03-08T22:45:28;92759.41;;;1.48;100.00
18137;BME280;9194;42.632;23.298;2024-03-08T22:50:30;92754.44;;;1.46;100.00
18137;BME280;9194;42.632;23.298;2024-03-08T22:55:31;92761.03;;;1.41;100.00
18137;BME280;9194;42.632;23.298;2024-03-08T23:00:32;92766.47;;;1.46;100.00
18137;BME280;9194;42.632;23.298;2024-03-08T23:05:40;92765.81;;;1.68;100.00
18137;BME280;9194;42.632;23.298;2024-03-08T23:10:41;92754.69;;;1.84;100.00
18137;BME280;9194;42.632;23.298;2024-03-08T23:15:43;92764.88;;;2.00;100.00
18137;BME280;9194;42.632;23.298;2024-03-08T23:20:45;92765.03;;;2.06;100.00
18137;BME280;9194;42.632;23.298;2024-03-08T23:25:49;92764.19;;;2.14;100.00
18137;BME280;9194;42.632;23.298;2024-03-08T23:30:50;92758.56;;;2.19;100.00
18137;BME280;9194;42.632;23.298;2024-03-08T23:35:52;92751.53;;;2.04;100.00
18137;BME280;9194;42.632;23.298;2024-03-08T23:40:53;92746.59;;;2.03;100.00
18137;BME280;9194;42.632;23.298;2024-03-08T23:45:54;92753.66;;;2.01;100.00
18137;BME280;9194;42.632;23.298;2024-03-08T23:50:57;92754.53;;;1.85;100.00
18137;BME280;9194;42.632;23.298;2024-03-08T23:56:00;92762.38;;;1.84;100.00
